Time;durP1;ratioP1;P1;durP2;ratioP2;P2;SDS_P1;SDS_P2;PMS_P1;PMS_P2;Temp;Humidity;BMP_temperature;BMP_pressure;BME280_temperature;BME280_humidity;BME280_pressure;Samples;Min_cycle;Max_cycle;Signal;HPM_P1;HPM_P2
2023/09/30 00:01:44;;;;;;;11.88;6.18;;;19.40;99.90;;;;;;5190363;28;20033;-79
2023/09/30 00:04:15;;;;;;;10.55;6.05;;;19.40;99.90;;;;;;5177145;28;20022;-80
2023/09/30 00:06:45;;;;;;;16.67;5.57;;;19.40;99.90;;;;;;5174748;28;20045;-80
2023/09/30 00:09:17;;;;;;;10.25;6.03;;;19.40;99.90;;;;;;5186421;28;20026;-80
2023/09/30 00:11:47;;;;;;;11.07;6.28;;;19.50;99.90;;;;;;5194948;28;20387;-79
2023/09/30 00:14:18;;;;;;;14.18;5.18;;;19.20;99.90;;;;;;5175016;28;20090;-79
2023/09/30 00:16:50;;;;;;;10.57;5.85;;;19.30;99.90;;;;;;5177111;28;20049;-79
2023/09/30 00:19:22;;;;;;;12.15;5.93;;;19.30;99.90;;;;;;5170088;28;20022;-79
2023/09/30 00:21:53;;;;;;;6.90;5.20;;;19.20;99.90;;;;;;5175334;28;20060;-80
2023/09/30 00:24:25;;;;;;;10.70;5.65;;;19.20;99.90;;;;;;5174524;28;20473;-81
2023/09/30 00:26:56;;;;;;;6.65;5.70;;;19.30;99.90;;;;;;5191142;28;20037;-79
2023/09/30 00:29:27;;;;;;;12.55;5.72;;;19.50;99.90;;;;;;5174008;28;20500;-80
2023/09/30 00:31:58;;;;;;;9.50;5.90;;;19.40;99.90;;;;;;5174484;28;20045;-79
2023/09/30 00:34:31;;;;;;;13.50;5.68;;;19.40;99.90;;;;;;5176563;28;20100;-79
2023/09/30 00:37:02;;;;;;;13.07;5.30;;;19.30;99.90;;;;;;5191626;28;20034;-78
2023/09/30 00:39:33;;;;;;;11.70;5.95;;;19.20;99.90;;;;;;5195509;28;20058;-80
2023/09/30 00:42:04;;;;;;;13.52;5.80;;;19.30;99.90;;;;;;5181785;28;20045;-80
2023/09/30 00:44:35;;;;;;;12.00;5.57;;;19.30;99.90;;;;;;5177412;28;20037;-79
2023/09/30 00:47:08;;;;;;;7.85;5.53;;;19.40;99.90;;;;;;5194174;28;20100;-78
2023/09/30 00:49:39;;;;;;;8.65;5.60;;;19.40;99.90;;;;;;5178154;28;20534;-80
2023/09/30 00:52:12;;;;;;;9.07;6.13;;;19.30;99.90;;;;;;5182823;28;20112;-80
2023/09/30 00:54:44;;;;;;;11.93;6.32;;;19.20;99.90;;;;;;5170568;28;20030;-80
2023/09/30 00:57:15;;;;;;;8.93;6.65;;;19.20;99.90;;;;;;5176436;28;20034;-80
2023/09/30 00:59:48;;;;;;;9.13;6.45;;;19.20;99.90;;;;;;5173094;28;20022;-80
2023/09/30 01:02:19;;;;;;;9.55;6.85;;;19.20;99.90;;;;;;5176014;28;20050;-79
2023/09/30 01:04:51;;;;;;;7.75;5.53;;;19.10;99.90;;;;;;5176462;28;20057;-79
2023/09/30 01:07:22;;;;;;;7.38;5.53;;;19.30;99.90;;;;;;5184651;28;20033;-79
2023/09/30 01:09:53;;;;;;;10.95;6.07;;;19.40;99.90;;;;;;5180141;28;20038;-80
2023/09/30 01:12:24;;;;;;;8.65;5.75;;;19.40;99.90;;;;;;5181597;28;20056;-79
2023/09/30 01:14:59;;;;;;;8.98;5.65;;;19.40;99.90;;;;;;5183508;28;20057;-78
2023/09/30 01:17:31;;;;;;;10.88;5.57;;;19.30;99.90;;;;;;5178602;28;20109;-79
2023/09/30 01:20:11;;;;;;;6.53;5.05;;;19.00;99.90;;;;;;5193612;28;20026;-79
2023/09/30 01:22:44;;;;;;;6.05;5.45;;;19.00;99.90;;;;;;5182954;28;20105;-80
2023/09/30 01:25:15;;;;;;;8.05;5.85;;;19.20;99.90;;;;;;5171618;28;20030;-79
2023/09/30 01:27:46;;;;;;;8.15;6.03;;;19.10;99.90;;;;;;5187811;28;20029;-79
2023/09/30 01:30:17;;;;;;;15.40;6.63;;;18.80;99.90;;;;;;5175991;28;20038;-80
2023/09/30 01:32:48;;;;;;;9.55;6.20;;;19.00;99.90;;;;;;5177155;28;20026;-81
2023/09/30 01:35:19;;;;;;;10.73;6.45;;;19.10;99.90;;;;;;5181173;28;20030;-80
2023/09/30 01:37:50;;;;;;;11.05;6.90;;;19.00;99.90;;;;;;5178303;28;20489;-80
2023/09/30 01:40:21;;;;;;;8.48;6.05;;;18.90;99.90;;;;;;5178869;28;20469;-80
2023/09/30 01:42:52;;;;;;;12.73;5.93;;;19.00;99.90;;;;;;5182137;28;20552;-79
2023/09/30 01:45:22;;;;;;;9.50;5.93;;;19.00;99.90;;;;;;5192281;28;20552;-80
2023/09/30 01:47:54;;;;;;;7.45;5.63;;;19.10;99.90;;;;;;5177981;28;20026;-80
2023/09/30 01:50:24;;;;;;;9.30;5.78;;;19.20;99.90;;;;;;5190378;28;20026;-80
2023/09/30 01:52:55;;;;;;;6.70;5.05;;;19.10;99.90;;;;;;5175979;28;20026;-80
2023/09/30 01:55:26;;;;;;;7.68;5.82;;;19.10;99.90;;;;;;5178406;28;20018;-80
2023/09/30 01:57:57;;;;;;;10.18;5.28;;;19.00;99.90;;;;;;5196362;28;20121;-81
2023/09/30 02:00:28;;;;;;;10.02;5.00;;;19.10;99.90;;;;;;5198788;28;20030;-81
2023/09/30 02:03:00;;;;;;;8.57;5.43;;;19.10;99.90;;;;;;5177569;28;20034;-80
2023/09/30 02:05:31;;;;;;;8.60;5.85;;;19.10;99.90;;;;;;5175791;28;20466;-81
2023/09/30 02:08:05;;;;;;;6.80;5.70;;;19.00;99.90;;;;;;5184186;28;20037;-80
2023/09/30 02:10:36;;;;;;;8.52;6.07;;;19.00;99.90;;;;;;5180344;28;20029;-80
2023/09/30 02:13:07;;;;;;;7.10;5.30;;;19.10;99.90;;;;;;5175626;28;20029;-80
2023/09/30 02:15:41;;;;;;;10.48;5.55;;;19.10;99.90;;;;;;5174491;28;20101;-80
2023/09/30 02:18:12;;;;;;;7.40;5.43;;;19.30;99.90;;;;;;5191022;28;20404;-80
2023/09/30 02:20:44;;;;;;;10.35;5.68;;;19.20;99.90;;;;;;5191759;28;20034;-80
2023/09/30 02:23:17;;;;;;;10.32;5.90;;;19.10;99.90;;;;;;5188525;28;20031;-80
2023/09/30 02:25:47;;;;;;;7.32;5.72;;;19.00;99.90;;;;;;5173358;28;20022;-80
2023/09/30 02:28:18;;;;;;;7.63;5.75;;;19.10;99.90;;;;;;5197866;28;20030;-80
2023/09/30 02:30:49;;;;;;;14.90;6.45;;;19.00;99.90;;;;;;5191867;28;20117;-80
2023/09/30 02:33:20;;;;;;;8.18;6.05;;;19.00;99.90;;;;;;5176815;28;20125;-80
2023/09/30 02:35:51;;;;;;;6.45;5.68;;;19.20;99.90;;;;;;5196553;28;20022;-80
2023/09/30 02:38:22;;;;;;;9.25;5.78;;;19.20;99.90;;;;;;5177629;28;20054;-80
2023/09/30 02:40:54;;;;;;;9.00;5.80;;;19.30;99.90;;;;;;5175048;28;20030;-80
2023/09/30 02:43:25;;;;;;;6.47;5.88;;;19.10;99.90;;;;;;5172353;28;20037;-80
2023/09/30 02:45:56;;;;;;;15.73;6.10;;;19.10;99.90;;;;;;5174210;28;20485;-81
2023/09/30 02:48:27;;;;;;;8.02;5.65;;;19.10;99.90;;;;;;5171724;28;20034;-79
2023/09/30 02:50:58;;;;;;;7.22;5.38;;;19.20;99.90;;;;;;5190865;28;20048;-80
2023/09/30 02:53:29;;;;;;;10.20;5.65;;;19.50;99.90;;;;;;5176527;28;20496;-79
2023/09/30 02:56:00;;;;;;;7.55;5.90;;;19.50;99.90;;;;;;5170583;28;20026;-80
2023/09/30 02:58:31;;;;;;;10.68;5.65;;;19.60;99.90;;;;;;5173986;28;20037;-80
2023/09/30 03:01:02;;;;;;;9.65;5.68;;;19.70;99.90;;;;;;5190452;28;20030;-80
2023/09/30 03:03:33;;;;;;;9.02;5.55;;;19.40;99.90;;;;;;5179517;28;20798;-80
2023/09/30 03:06:05;;;;;;;7.25;6.25;;;19.40;99.90;;;;;;5178438;28;20026;-80
2023/09/30 03:08:37;;;;;;;7.68;6.88;;;19.40;99.90;;;;;;5178136;28;20026;-80
2023/09/30 03:11:08;;;;;;;9.95;6.20;;;19.30;99.90;;;;;;5170244;28;20477;-80
2023/09/30 03:13:42;;;;;;;9.85;6.47;;;19.50;99.90;;;;;;5180426;28;20121;-81
2023/09/30 03:16:13;;;;;;;9.27;6.65;;;19.60;99.90;;;;;;5174331;28;20026;-81
2023/09/30 03:18:44;;;;;;;10.23;6.82;;;19.60;99.90;;;;;;5180287;28;20061;-81
2023/09/30 03:21:15;;;;;;;10.13;5.78;;;19.50;99.90;;;;;;5198111;28;20024;-81
2023/09/30 03:23:46;;;;;;;12.05;6.60;;;19.50;99.90;;;;;;5179321;28;20026;-81
2023/09/30 03:26:17;;;;;;;10.38;7.38;;;19.60;99.90;;;;;;5171904;28;20536;-80
2023/09/30 03:28:49;;;;;;;12.27;8.65;;;19.50;99.90;;;;;;5183209;28;20101;-80
2023/09/30 03:31:22;;;;;;;11.07;9.07;;;19.40;99.90;;;;;;5188900;28;20037;-80
2023/09/30 03:33:56;;;;;;;13.45;8.27;;;19.40;99.90;;;;;;5180469;28;20423;-81
2023/09/30 03:36:27;;;;;;;10.93;9.00;;;19.40;99.90;;;;;;5176665;28;20048;-80
2023/09/30 03:39:05;;;;;;;14.13;9.43;;;19.20;99.90;;;;;;5175522;28;20152;-80
2023/09/30 03:41:36;;;;;;;12.52;8.95;;;19.20;99.90;;;;;;5177393;28;20084;-80
2023/09/30 03:44:08;;;;;;;18.88;10.50;;;19.20;99.90;;;;;;5174400;28;20076;-80
2023/09/30 03:46:39;;;;;;;13.68;9.68;;;19.30;99.90;;;;;;5176269;28;20021;-80
2023/09/30 03:49:09;;;;;;;14.70;10.32;;;19.10;99.90;;;;;;5186502;28;20026;-81
2023/09/30 03:51:41;;;;;;;17.38;9.52;;;19.30;99.90;;;;;;5176328;28;20084;-81
2023/09/30 03:54:11;;;;;;;13.80;9.85;;;19.30;99.90;;;;;;5178205;28;20710;-81
2023/09/30 03:56:43;;;;;;;17.73;9.43;;;19.30;99.90;;;;;;5171933;28;20030;-81
2023/09/30 03:59:15;;;;;;;12.50;9.75;;;19.20;99.90;;;;;;5179558;28;20389;-80
2023/09/30 04:01:47;;;;;;;11.88;9.90;;;19.10;99.90;;;;;;5173154;28;20469;-81
2023/09/30 04:04:18;;;;;;;14.32;8.85;;;19.10;99.90;;;;;;5174297;28;20030;-81
2023/09/30 04:06:51;;;;;;;12.10;9.45;;;19.00;99.90;;;;;;5190238;28;20044;-80
2023/09/30 04:09:22;;;;;;;14.70;9.13;;;19.00;99.90;;;;;;5173719;28;20102;-80
2023/09/30 04:11:52;;;;;;;14.30;9.32;;;19.00;99.90;;;;;;5188426;28;20042;-80
2023/09/30 04:14:25;;;;;;;13.10;9.13;;;18.70;99.90;;;;;;5173635;28;20032;-80
2023/09/30 04:16:55;;;;;;;11.73;8.63;;;19.00;99.90;;;;;;5186798;28;20041;-80
2023/09/30 04:19:29;;;;;;;11.18;9.07;;;19.10;99.90;;;;;;5178134;28;20022;-80
2023/09/30 04:22:00;;;;;;;13.27;9.07;;;19.10;99.90;;;;;;5175762;28;20511;-80
2023/09/30 04:24:32;;;;;;;11.57;8.40;;;19.10;99.90;;;;;;5169616;28;20030;-81
2023/09/30 04:27:05;;;;;;;13.23;8.75;;;19.00;99.90;;;;;;5175130;28;20068;-81
2023/09/30 04:29:36;;;;;;;15.93;8.90;;;19.00;99.90;;;;;;5188769;28;20030;-80
2023/09/30 04:32:07;;;;;;;15.18;9.07;;;18.80;99.90;;;;;;5171922;28;20026;-80
2023/09/30 04:34:38;;;;;;;11.82;9.02;;;18.80;99.90;;;;;;5174320;28;20034;-80
2023/09/30 04:37:09;;;;;;;12.70;8.02;;;18.90;99.90;;;;;;5168573;28;20049;-80
2023/09/30 04:39:40;;;;;;;10.20;8.90;;;18.80;99.90;;;;;;5179477;28;20034;-79
2023/09/30 04:42:11;;;;;;;14.55;9.55;;;18.70;99.90;;;;;;5182861;28;20115;-80
2023/09/30 04:44:43;;;;;;;17.10;9.15;;;18.80;99.90;;;;;;5177416;28;20026;-80
2023/09/30 04:47:14;;;;;;;13.73;8.57;;;19.00;99.90;;;;;;5175966;28;20060;-81
2023/09/30 04:49:45;;;;;;;11.60;8.20;;;19.10;99.90;;;;;;5175109;28;20046;-80
2023/09/30 04:52:16;;;;;;;12.73;7.82;;;19.20;99.90;;;;;;5175333;28;20023;-81
2023/09/30 04:54:47;;;;;;;15.10;8.82;;;19.30;99.90;;;;;;5168152;28;20036;-80
2023/09/30 04:57:19;;;;;;;12.75;9.00;;;19.30;99.90;;;;;;5176937;28;20030;-81
2023/09/30 04:59:50;;;;;;;12.98;8.10;;;18.90;99.90;;;;;;5182025;28;20042;-80
2023/09/30 05:02:20;;;;;;;11.93;8.13;;;19.00;99.90;;;;;;5175966;28;20120;-80
2023/09/30 05:04:52;;;;;;;14.20;7.63;;;19.00;99.90;;;;;;5171113;28;20018;-80
2023/09/30 05:07:23;;;;;;;11.93;7.70;;;19.00;99.90;;;;;;5173066;28;20774;-80
2023/09/30 05:09:54;;;;;;;14.93;7.97;;;19.10;99.90;;;;;;5172319;28;20030;-80
2023/09/30 05:12:25;;;;;;;11.52;7.25;;;19.20;99.90;;;;;;5187555;28;20041;-81
2023/09/30 05:14:57;;;;;;;10.27;7.43;;;19.30;99.90;;;;;;5171722;28;20388;-80
2023/09/30 05:17:28;;;;;;;9.75;7.28;;;19.30;99.90;;;;;;5176355;28;20046;-80
2023/09/30 05:19:59;;;;;;;13.23;7.85;;;19.40;99.90;;;;;;5178705;28;20109;-81
2023/09/30 05:22:30;;;;;;;10.50;7.20;;;19.50;99.90;;;;;;5178132;28;20484;-80
2023/09/30 05:25:01;;;;;;;12.43;7.43;;;19.40;99.90;;;;;;5177744;28;20120;-81
2023/09/30 05:27:32;;;;;;;9.75;7.35;;;19.40;99.90;;;;;;5178487;28;20015;-80
2023/09/30 05:30:07;;;;;;;11.38;7.03;;;19.30;99.90;;;;;;5176631;28;20078;-80
2023/09/30 05:32:39;;;;;;;10.73;6.70;;;19.20;99.90;;;;;;5183598;28;20481;-80
2023/09/30 05:35:13;;;;;;;12.30;8.13;;;19.30;99.90;;;;;;5178897;28;20022;-80
2023/09/30 05:37:46;;;;;;;12.52;7.72;;;19.20;99.90;;;;;;5193680;28;20053;-80
2023/09/30 05:40:25;;;;;;;10.57;7.30;;;19.20;99.90;;;;;;5172562;28;20066;-80
2023/09/30 05:43:00;;;;;;;10.20;7.47;;;19.20;99.90;;;;;;5174465;28;20018;-79
2023/09/30 05:45:36;;;;;;;12.40;7.18;;;19.10;99.90;;;;;;5180405;28;20524;-80
2023/09/30 05:48:07;;;;;;;12.18;8.77;;;19.10;99.90;;;;;;5191258;28;20026;-80
2023/09/30 05:50:38;;;;;;;11.27;7.97;;;19.20;99.90;;;;;;5167937;28;20505;-80
2023/09/30 05:53:10;;;;;;;15.18;8.35;;;19.40;99.90;;;;;;5177660;28;20054;-80
2023/09/30 05:55:42;;;;;;;12.05;8.30;;;19.50;99.90;;;;;;5191370;28;20035;-81
2023/09/30 05:58:16;;;;;;;10.90;8.95;;;19.80;99.90;;;;;;5174853;28;20385;-81
2023/09/30 06:00:47;;;;;;;11.95;8.35;;;20.10;99.90;;;;;;5185158;28;20026;-81
2023/09/30 06:03:18;;;;;;;9.98;7.60;;;20.30;99.90;;;;;;5177821;28;20093;-81
2023/09/30 06:08:29;;;;;;;10.82;8.15;;;20.40;99.90;;;;;;4493850;26;21122;-80
2023/09/30 06:11:00;;;;;;;13.55;8.43;;;20.70;99.90;;;;;;5204538;28;20052;-79
2023/09/30 06:13:33;;;;;;;22.13;8.23;;;20.70;99.90;;;;;;5206804;28;20117;-80
2023/09/30 06:16:04;;;;;;;14.85;7.50;;;20.80;99.90;;;;;;5205850;28;20029;-79
2023/09/30 06:18:34;;;;;;;15.88;7.88;;;20.90;99.90;;;;;;5205618;28;20041;-80
2023/09/30 06:21:06;;;;;;;12.90;7.85;;;20.90;99.90;;;;;;5204868;28;20033;-79
2023/09/30 06:23:37;;;;;;;15.77;8.48;;;21.00;99.90;;;;;;5205569;28;20036;-79
2023/09/30 06:26:09;;;;;;;19.55;9.75;;;21.20;99.90;;;;;;5206486;28;20393;-80
2023/09/30 06:28:40;;;;;;;15.45;9.68;;;21.20;99.90;;;;;;5206609;28;20112;-79
2023/09/30 06:31:11;;;;;;;12.68;9.90;;;21.00;99.90;;;;;;5206016;28;20041;-80
2023/09/30 06:33:43;;;;;;;11.10;9.07;;;21.20;99.90;;;;;;5206482;28;20362;-79
2023/09/30 06:36:14;;;;;;;13.82;9.40;;;21.00;99.90;;;;;;5205568;28;20579;-80
2023/09/30 06:38:48;;;;;;;18.00;7.97;;;21.00;99.90;;;;;;5204803;28;20484;-80
2023/09/30 06:41:19;;;;;;;13.45;7.30;;;21.00;99.90;;;;;;5204603;28;20504;-79
2023/09/30 06:43:51;;;;;;;12.93;7.70;;;21.00;99.90;;;;;;5205654;28;20017;-81
2023/09/30 06:46:23;;;;;;;14.23;7.78;;;21.10;99.90;;;;;;5206163;28;20079;-80
2023/09/30 06:48:54;;;;;;;13.73;9.00;;;21.10;99.90;;;;;;5204884;28;20030;-79
2023/09/30 06:51:26;;;;;;;17.42;9.27;;;21.20;99.90;;;;;;5203898;28;20040;-80
2023/09/30 06:53:57;;;;;;;12.90;9.77;;;21.30;99.90;;;;;;5204455;28;20423;-79
2023/09/30 06:56:28;;;;;;;15.02;8.77;;;21.40;99.90;;;;;;5205037;28;20029;-80
2023/09/30 06:58:59;;;;;;;18.50;10.55;;;21.30;99.90;;;;;;5205466;28;20033;-79
2023/09/30 07:01:30;;;;;;;15.73;10.20;;;21.30;99.90;;;;;;5204554;28;20473;-79
2023/09/30 07:04:01;;;;;;;17.13;11.93;;;21.50;99.90;;;;;;5204318;28;20083;-79
2023/09/30 07:06:32;;;;;;;13.20;11.35;;;21.50;99.90;;;;;;5205051;28;20499;-79
2023/09/30 07:09:04;;;;;;;16.63;11.73;;;21.50;99.90;;;;;;5205615;28;20049;-79
2023/09/30 07:11:35;;;;;;;17.55;10.75;;;21.50;99.90;;;;;;5203754;28;20037;-79
2023/09/30 07:14:05;;;;;;;15.18;12.80;;;21.60;99.90;;;;;;5203759;28;20037;-79
2023/09/30 07:16:36;;;;;;;16.48;13.98;;;21.70;99.90;;;;;;5205179;28;20041;-79
2023/09/30 07:19:11;;;;;;;17.65;14.05;;;21.70;99.90;;;;;;5204979;28;20040;-77
2023/09/30 07:21:42;;;;;;;16.67;12.98;;;21.90;99.90;;;;;;5204074;28;20025;-78
2023/09/30 07:24:14;;;;;;;15.32;11.27;;;21.90;99.90;;;;;;5204859;28;20029;-79
2023/09/30 07:26:45;;;;;;;16.45;11.25;;;22.00;99.90;;;;;;5205264;28;20018;-79
2023/09/30 07:29:16;;;;;;;15.40;10.45;;;21.90;99.90;;;;;;5204797;28;20033;-78
2023/09/30 07:31:47;;;;;;;14.60;11.23;;;22.10;99.90;;;;;;5204528;28;20059;-79
2023/09/30 07:34:19;;;;;;;17.98;9.95;;;22.30;99.90;;;;;;5202955;28;20030;-79
2023/09/30 07:36:50;;;;;;;17.20;9.18;;;22.40;99.90;;;;;;5204407;28;20048;-79
2023/09/30 07:39:20;;;;;;;15.02;9.50;;;22.30;99.90;;;;;;5206064;28;20029;-80
2023/09/30 07:41:51;;;;;;;14.30;8.82;;;22.30;99.90;;;;;;5205615;28;20448;-78
2023/09/30 07:44:22;;;;;;;14.48;8.77;;;22.50;99.90;;;;;;5204407;28;20030;-80
2023/09/30 07:46:53;;;;;;;16.55;10.05;;;22.50;99.90;;;;;;5205848;28;20025;-79
2023/09/30 07:49:24;;;;;;;14.77;9.73;;;22.40;99.90;;;;;;5203954;28;20029;-80
2023/09/30 07:51:55;;;;;;;11.13;9.75;;;22.50;99.90;;;;;;5205172;28;20103;-81
2023/09/30 07:54:26;;;;;;;13.00;9.40;;;22.60;99.90;;;;;;5198479;28;20409;-79
2023/09/30 07:56:57;;;;;;;11.75;9.93;;;22.70;99.90;;;;;;5203927;28;20029;-78
2023/09/30 07:59:28;;;;;;;14.95;9.82;;;22.60;99.90;;;;;;5205288;28;20068;-77
2023/09/30 08:01:59;;;;;;;17.10;9.00;;;22.80;99.90;;;;;;5205015;28;20060;-80
2023/09/30 08:04:31;;;;;;;16.33;8.30;;;22.60;99.90;;;;;;5204393;28;20044;-78
2023/09/30 08:07:02;;;;;;;16.10;9.35;;;22.40;99.90;;;;;;5204044;28;20519;-78
2023/09/30 08:09:33;;;;;;;18.52;10.77;;;22.40;99.90;;;;;;5204461;28;20037;-78
2023/09/30 08:12:04;;;;;;;14.38;9.10;;;22.80;99.90;;;;;;5205026;28;20085;-79
2023/09/30 08:14:35;;;;;;;15.40;7.68;;;23.00;99.90;;;;;;5204755;28;20029;-79
2023/09/30 08:17:06;;;;;;;16.25;8.65;;;23.10;99.90;;;;;;5203504;28;20040;-78
2023/09/30 08:19:37;;;;;;;18.80;10.02;;;23.10;99.90;;;;;;5203809;28;20071;-77
2023/09/30 08:22:09;;;;;;;20.92;11.15;;;23.40;99.90;;;;;;5205194;28;20499;-78
2023/09/30 08:24:46;;;;;;;19.85;12.70;;;23.50;99.90;;;;;;5204429;28;20022;-79
2023/09/30 08:27:17;;;;;;;16.33;12.27;;;23.70;99.90;;;;;;5203532;28;20033;-79
2023/09/30 08:29:48;;;;;;;12.95;11.65;;;23.50;99.90;;;;;;5203578;28;20473;-79
2023/09/30 08:32:19;;;;;;;16.50;11.95;;;23.30;99.90;;;;;;5203403;28;20041;-78
2023/09/30 08:34:50;;;;;;;15.23;10.68;;;23.30;99.90;;;;;;5203061;28;20138;-78
2023/09/30 08:37:21;;;;;;;16.20;11.60;;;23.40;99.90;;;;;;5204344;28;20037;-79
2023/09/30 08:39:52;;;;;;;11.50;10.30;;;23.50;99.90;;;;;;5205274;28;20018;-79
2023/09/30 08:42:29;;;;;;;13.57;10.30;;;23.70;99.90;;;;;;5203729;28;20045;-79
2023/09/30 08:45:00;;;;;;;17.58;12.20;;;23.70;99.90;;;;;;5204731;28;20022;-79
2023/09/30 08:47:34;;;;;;;23.80;9.77;;;23.50;99.90;;;;;;5204798;28;20112;-79
2023/09/30 08:50:10;;;;;;;18.33;12.73;;;23.20;99.90;;;;;;5203389;28;20037;-80
2023/09/30 08:52:43;;;;;;;13.85;12.20;;;23.30;99.90;;;;;;5205215;28;20030;-78
2023/09/30 08:55:14;;;;;;;14.23;11.13;;;23.60;99.90;;;;;;5208442;28;20036;-79
2023/09/30 08:57:46;;;;;;;17.35;12.35;;;23.60;99.90;;;;;;5207065;28;20021;-79
2023/09/30 09:00:17;;;;;;;17.20;10.65;;;23.80;99.90;;;;;;5208143;28;20441;-79
2023/09/30 09:02:50;;;;;;;14.50;11.32;;;23.70;99.90;;;;;;5206950;28;20614;-79
2023/09/30 09:05:21;;;;;;;19.23;10.40;;;23.40;99.90;;;;;;5208038;28;20029;-79
2023/09/30 09:07:53;;;;;;;14.95;11.68;;;23.30;99.90;;;;;;5208825;28;20053;-78
2023/09/30 09:10:24;;;;;;;21.50;12.35;;;23.10;99.90;;;;;;5208424;28;20041;-77
2023/09/30 09:12:57;;;;;;;13.82;11.73;;;23.30;99.90;;;;;;5209412;28;20040;-80
2023/09/30 09:15:28;;;;;;;14.43;10.40;;;23.10;99.90;;;;;;5208661;28;20108;-78
2023/09/30 09:18:00;;;;;;;14.05;11.32;;;23.20;99.90;;;;;;5206666;28;20119;-79
2023/09/30 09:20:31;;;;;;;15.88;10.88;;;23.30;99.90;;;;;;5206177;28;20029;-80
2023/09/30 09:23:06;;;;;;;13.65;11.88;;;23.30;99.90;;;;;;5207225;28;20028;-80
2023/09/30 09:25:39;;;;;;;16.52;9.95;;;23.10;99.90;;;;;;5207090;28;20029;-79
2023/09/30 09:28:11;;;;;;;13.98;9.52;;;23.00;99.90;;;;;;5208196;28;20079;-80
2023/09/30 09:30:43;;;;;;;13.98;9.32;;;22.90;99.90;;;;;;5207030;28;20104;-80
2023/09/30 09:33:14;;;;;;;14.52;10.32;;;23.00;99.90;;;;;;5206540;28;20569;-80
2023/09/30 09:35:48;;;;;;;15.73;12.65;;;23.10;99.90;;;;;;5207053;28;20033;-78
2023/09/30 09:38:19;;;;;;;18.58;11.93;;;23.40;99.90;;;;;;5208009;28;20034;-78
2023/09/30 09:40:50;;;;;;;24.10;10.15;;;23.30;99.90;;;;;;5208311;28;20026;-79
2023/09/30 09:43:21;;;;;;;12.20;10.38;;;23.30;99.90;;;;;;5208360;28;20100;-78
2023/09/30 09:45:52;;;;;;;16.48;10.88;;;23.50;99.90;;;;;;5207912;28;20136;-79
2023/09/30 09:48:23;;;;;;;12.70;10.35;;;23.30;99.90;;;;;;5207940;28;20029;-78
2023/09/30 09:50:55;;;;;;;17.20;11.13;;;23.40;99.90;;;;;;5208086;28;20036;-78
2023/09/30 09:53:28;;;;;;;15.00;10.20;;;23.80;99.90;;;;;;5208077;28;20076;-81
2023/09/30 09:56:00;;;;;;;16.08;10.40;;;23.90;99.90;;;;;;5208064;28;20029;-78
2023/09/30 09:58:34;;;;;;;14.60;9.82;;;23.70;99.90;;;;;;5206484;28;20037;-81
2023/09/30 10:01:06;;;;;;;12.20;9.15;;;23.90;99.90;;;;;;5206677;28;20033;-80
2023/09/30 10:03:39;;;;;;;12.80;9.48;;;23.90;99.90;;;;;;5207998;28;20108;-80
2023/09/30 10:06:11;;;;;;;22.50;9.70;;;23.80;99.90;;;;;;5207380;28;20025;-80
2023/09/30 10:08:45;;;;;;;11.65;9.45;;;23.70;99.90;;;;;;5207139;28;20056;-79
2023/09/30 10:11:20;;;;;;;13.90;8.95;;;23.60;99.90;;;;;;5203849;28;20040;-79
2023/09/30 10:14:03;;;;;;;17.42;9.38;;;23.30;99.90;;;;;;5206470;28;20021;-80
2023/09/30 10:16:37;;;;;;;12.65;9.73;;;23.20;99.90;;;;;;5206899;28;20707;-80
2023/09/30 10:19:25;;;;;;;16.05;9.55;;;23.30;99.90;;;;;;5206346;28;20794;-78
2023/09/30 10:24:50;;;;;;;16.35;9.30;;;23.10;99.90;;;;;;5201189;28;20030;-79
2023/09/30 10:27:28;;;;;;;16.48;9.32;;;23.00;99.90;;;;;;5207439;28;20080;-78
2023/09/30 10:30:16;;;;;;;18.80;10.43;;;23.00;99.90;;;;;;5206025;28;20116;-81
2023/09/30 10:32:53;;;;;;;16.50;11.30;;;23.10;99.90;;;;;;5202328;28;20033;-80
2023/09/30 10:35:27;;;;;;;11.73;9.70;;;23.10;99.90;;;;;;5706200;22;20104;-81
2023/09/30 10:38:26;;;;;;;13.27;10.07;;;23.30;99.90;;;;;;5202983;28;20900;-79
2023/09/30 10:40:57;;;;;;;16.38;9.35;;;23.20;99.90;;;;;;5203995;28;20120;-80
2023/09/30 10:43:36;;;;;;;22.63;9.38;;;23.10;99.90;;;;;;5206863;28;20144;-80
2023/09/30 10:46:28;;;;;;;18.85;9.55;;;23.20;99.90;;;;;;5206990;28;20025;-80
2023/09/30 10:49:38;;;;;;;16.58;10.48;;;23.30;99.90;;;;;;5205332;28;20524;-84
2023/09/30 10:52:10;;;;;;;;;;;23.40;99.90;;;;;;5206531;28;20047;-80
2023/09/30 10:54:41;;;;;;;18.77;9.27;;;23.60;99.90;;;;;;5205747;28;20028;-79
2023/09/30 10:57:12;;;;;;;12.27;8.80;;;23.80;99.90;;;;;;5205727;28;20025;-80
2023/09/30 10:59:43;;;;;;;15.10;7.72;;;24.10;99.90;;;;;;5204933;28;20041;-80
2023/09/30 11:02:20;;;;;;;14.32;7.70;;;24.10;99.90;;;;;;5204527;28;20030;-79
2023/09/30 11:04:51;;;;;;;16.88;8.32;;;24.20;99.90;;;;;;5203532;28;20034;-81
2023/09/30 11:07:25;;;;;;;13.82;7.85;;;24.10;99.90;;;;;;5204043;28;20034;-83
2023/09/30 11:09:57;;;;;;;13.45;8.70;;;24.20;99.90;;;;;;5206129;28;20028;-81
2023/09/30 11:12:28;;;;;;;12.82;7.95;;;24.60;99.90;;;;;;5205866;28;20120;-81
2023/09/30 11:15:01;;;;;;;16.73;7.78;;;24.80;99.90;;;;;;5204299;28;20029;-81
2023/09/30 11:17:32;;;;;;;15.38;7.85;;;24.60;99.90;;;;;;5204263;28;20033;-81
2023/09/30 11:20:06;;;;;;;16.75;7.80;;;24.90;99.90;;;;;;5205934;28;20036;-81
2023/09/30 11:22:37;;;;;;;14.85;7.50;;;24.80;99.90;;;;;;5204081;28;20026;-81
2023/09/30 11:25:19;;;;;;;13.70;7.63;;;24.50;99.90;;;;;;5205916;28;20080;-81
2023/09/30 11:27:49;;;;;;;12.60;7.80;;;24.30;99.90;;;;;;5205637;28;20033;-81
2023/09/30 11:30:20;;;;;;;16.65;8.27;;;24.10;99.90;;;;;;5204167;28;20032;-81
2023/09/30 11:33:00;;;;;;;16.58;9.60;;;24.00;99.90;;;;;;5205814;28;20025;-81
2023/09/30 11:35:31;;;;;;;14.43;8.88;;;24.00;99.90;;;;;;5204717;28;21075;-82
2023/09/30 11:38:02;;;;;;;13.93;10.05;;;23.90;99.90;;;;;;5205503;28;20050;-81
2023/09/30 11:40:33;;;;;;;17.42;10.20;;;24.00;99.90;;;;;;5204009;28;20041;-81
2023/09/30 11:43:11;;;;;;;15.07;9.30;;;23.90;99.90;;;;;;5204149;28;20071;-82
2023/09/30 11:45:42;;;;;;;18.98;11.25;;;24.20;99.90;;;;;;5205109;28;20018;-82
2023/09/30 11:48:22;;;;;;;15.73;9.90;;;24.20;99.90;;;;;;5205173;28;20033;-82
2023/09/30 11:50:55;;;;;;;18.33;9.00;;;24.00;99.90;;;;;;5203288;28;20063;-81
2023/09/30 11:53:26;;;;;;;17.33;10.18;;;24.00;99.90;;;;;;5203837;28;20029;-82
2023/09/30 11:55:58;;;;;;;17.48;8.93;;;24.00;99.90;;;;;;5205170;28;20378;-82
2023/09/30 11:58:32;;;;;;;17.73;9.52;;;24.20;99.90;;;;;;5205409;28;21424;-81
2023/09/30 12:01:03;;;;;;;13.85;8.95;;;24.00;99.90;;;;;;5204205;28;20029;-81
2023/09/30 12:03:39;;;;;;;17.45;9.23;;;24.00;99.90;;;;;;5205401;28;20745;-81
2023/09/30 12:06:13;;;;;;;21.05;11.45;;;23.90;99.90;;;;;;5205141;28;20056;-82
2023/09/30 12:08:45;;;;;;;22.52;10.55;;;23.90;99.90;;;;;;5204446;28;20030;-82
2023/09/30 12:11:16;;;;;;;20.10;11.82;;;23.90;99.90;;;;;;5204156;28;20038;-82
2023/09/30 12:13:49;;;;;;;18.88;10.65;;;23.90;99.90;;;;;;5205608;28;20373;-81
2023/09/30 12:16:21;;;;;;;17.65;10.48;;;24.00;99.90;;;;;;5205594;28;20037;-82
2023/09/30 12:18:52;;;;;;;16.63;9.45;;;24.00;99.90;;;;;;5205434;28;20021;-82
2023/09/30 12:21:23;;;;;;;15.30;9.75;;;24.20;99.90;;;;;;5205530;28;20389;-82
2023/09/30 12:23:55;;;;;;;18.30;9.73;;;24.10;99.90;;;;;;5204279;28;20030;-81
2023/09/30 12:26:25;;;;;;;20.88;9.23;;;23.90;99.90;;;;;;5205994;28;20021;-81
2023/09/30 12:28:57;;;;;;;17.45;9.38;;;23.80;99.90;;;;;;5209560;28;20028;-82
2023/09/30 12:31:28;;;;;;;16.95;9.65;;;23.70;99.90;;;;;;5209353;28;20041;-82
2023/09/30 12:33:59;;;;;;;16.58;9.48;;;23.70;99.90;;;;;;5209644;28;20053;-82
2023/09/30 12:36:30;;;;;;;17.23;11.15;;;23.90;99.90;;;;;;5685007;22;20119;-83
2023/09/30 12:39:03;;;;;;;18.83;9.60;;;23.90;99.90;;;;;;5202031;28;20764;-82
2023/09/30 12:41:34;;;;;;;17.70;9.02;;;23.90;99.90;;;;;;5207123;28;20036;-82
2023/09/30 13:07:42;;;;;;;24.70;9.52;;;23.90;99.90;;;;;;5295478;27;20834;-77
2023/09/30 13:10:13;;;;;;;16.70;9.98;;;23.90;99.90;;;;;;5289498;28;20382;-77
2023/09/30 13:12:44;;;;;;;17.65;9.43;;;24.00;99.90;;;;;;5296328;28;20035;-78
2023/09/30 13:15:16;;;;;;;16.08;9.13;;;23.90;99.90;;;;;;5295295;27;20046;-76
2023/09/30 13:17:47;;;;;;;19.23;8.38;;;23.90;99.90;;;;;;5293420;27;20039;-80
2023/09/30 13:20:18;;;;;;;22.42;8.57;;;23.90;99.90;;;;;;5290705;27;20023;-80
2023/09/30 13:22:49;;;;;;;17.20;8.27;;;23.80;99.90;;;;;;5294362;28;20027;-79
2023/09/30 13:25:20;;;;;;;18.25;8.30;;;23.80;99.90;;;;;;5295665;27;20034;-80
2023/09/30 13:27:51;;;;;;;18.08;7.97;;;23.80;99.90;;;;;;5295985;27;20019;-80
2023/09/30 13:30:22;;;;;;;18.80;7.50;;;23.90;99.90;;;;;;5284430;28;20030;-81